sensor_id;sensor_type;location;lat;lon;timestamp;P1;durP1;ratioP1;P2;durP2;ratioP2
34035;SDS011;63481;52.588;22.472;2023-03-31T00:00:02;31.50;;;20.70;;
34035;SDS011;63481;52.588;22.472;2023-03-31T00:01:15;28.80;;;20.20;;
34035;SDS011;63481;52.588;22.472;2023-03-31T00:02:08;27.70;;;20.60;;
34035;SDS011;63481;52.588;22.472;2023-03-31T00:03:04;29.80;;;21.10;;
34035;SDS011;63481;52.588;22.472;2023-03-31T00:04:01;31.60;;;21.00;;
34035;SDS011;63481;52.588;22.472;2023-03-31T00:04:58;28.90;;;20.60;;
34035;SDS011;63481;52.588;22.472;2023-03-31T00:05:55;31.20;;;21.70;;
34035;SDS011;63481;52.588;22.472;2023-03-31T00:06:49;33.20;;;21.80;;
34035;SDS011;63481;52.588;22.472;2023-03-31T00:07:45;28.20;;;20.70;;
34035;SDS011;63481;52.588;22.472;2023-03-31T00:08:39;31.80;;;22.00;;
34035;SDS011;63481;52.588;22.472;2023-03-31T00:09:32;34.70;;;21.50;;
34035;SDS011;63481;52.588;22.472;2023-03-31T00:10:28;32.40;;;22.20;;
34035;SDS011;63481;52.588;22.472;2023-03-31T00:11:23;31.30;;;21.80;;
34035;SDS011;63481;52.588;22.472;2023-03-31T00:12:16;31.30;;;21.50;;
34035;SDS011;63481;52.588;22.472;2023-03-31T00:13:09;35.60;;;22.90;;
34035;SDS011;63481;52.588;22.472;2023-03-31T00:14:03;28.20;;;21.10;;
34035;SDS011;63481;52.588;22.472;2023-03-31T00:14:59;31.80;;;22.30;;
34035;SDS011;63481;52.588;22.472;2023-03-31T00:15:59;32.40;;;22.90;;
34035;SDS011;63481;52.588;22.472;2023-03-31T00:16:53;34.40;;;23.60;;
34035;SDS011;63481;52.588;22.472;2023-03-31T00:17:46;31.80;;;22.90;;
34035;SDS011;63481;52.588;22.472;2023-03-31T00:18:38;29.70;;;21.90;;
34035;SDS011;63481;52.588;22.472;2023-03-31T00:19:41;31.80;;;22.40;;
34035;SDS011;63481;52.588;22.472;2023-03-31T00:20:34;33.70;;;22.50;;
34035;SDS011;63481;52.588;22.472;2023-03-31T00:21:29;27.80;;;21.10;;
34035;SDS011;63481;52.588;22.472;2023-03-31T00:22:27;31.80;;;22.40;;
34035;SDS011;63481;52.588;22.472;2023-03-31T00:23:20;33.50;;;23.00;;
34035;SDS011;63481;52.588;22.472;2023-03-31T00:24:18;35.00;;;20.60;;
34035;SDS011;63481;52.588;22.472;2023-03-31T00:25:12;34.10;;;23.60;;
34035;SDS011;63481;52.588;22.472;2023-03-31T00:26:05;29.10;;;21.00;;
34035;SDS011;63481;52.588;22.472;2023-03-31T00:27:01;31.60;;;21.70;;
34035;SDS011;63481;52.588;22.472;2023-03-31T00:27:55;29.00;;;21.40;;
34035;SDS011;63481;52.588;22.472;2023-03-31T00:28:48;31.50;;;21.70;;
34035;SDS011;63481;52.588;22.472;2023-03-31T00:29:41;29.60;;;21.50;;
34035;SDS011;63481;52.588;22.472;2023-03-31T00:30:34;34.50;;;22.00;;
34035;SDS011;63481;52.588;22.472;2023-03-31T00:31:27;31.30;;;21.70;;
34035;SDS011;63481;52.588;22.472;2023-03-31T00:32:20;32.70;;;22.00;;
34035;SDS011;63481;52.588;22.472;2023-03-31T00:33:13;31.40;;;22.10;;
34035;SDS011;63481;52.588;22.472;2023-03-31T00:34:05;30.50;;;21.50;;
34035;SDS011;63481;52.588;22.472;2023-03-31T00:34:59;32.40;;;22.80;;
34035;SDS011;63481;52.588;22.472;2023-03-31T00:35:53;30.70;;;22.80;;
34035;SDS011;63481;52.588;22.472;2023-03-31T00:36:46;32.30;;;23.10;;
34035;SDS011;63481;52.588;22.472;2023-03-31T00:37:39;31.00;;;22.10;;
34035;SDS011;63481;52.588;22.472;2023-03-31T00:38:31;32.10;;;23.10;;
34035;SDS011;63481;52.588;22.472;2023-03-31T00:39:25;33.50;;;23.10;;
34035;SDS011;63481;52.588;22.472;2023-03-31T00:40:19;34.80;;;22.40;;
34035;SDS011;63481;52.588;22.472;2023-03-31T00:41:11;31.90;;;21.30;;
34035;SDS011;63481;52.588;22.472;2023-03-31T00:42:04;32.80;;;22.60;;
34035;SDS011;63481;52.588;22.472;2023-03-31T00:42:57;32.80;;;21.80;;
34035;SDS011;63481;52.588;22.472;2023-03-31T00:47:12;30.30;;;22.80;;
34035;SDS011;63481;52.588;22.472;2023-03-31T00:48:12;33.90;;;22.90;;
34035;SDS011;63481;52.588;22.472;2023-03-31T00:49:11;35.00;;;22.40;;
34035;SDS011;63481;52.588;22.472;2023-03-31T00:50:16;30.90;;;22.40;;
34035;SDS011;63481;52.588;22.472;2023-03-31T00:51:12;32.40;;;22.30;;
34035;SDS011;63481;52.588;22.472;2023-03-31T00:53:17;31.80;;;22.30;;
34035;SDS011;63481;52.588;22.472;2023-03-31T00:54:13;33.00;;;22.90;;
34035;SDS011;63481;52.588;22.472;2023-03-31T00:55:11;34.40;;;23.60;;
34035;SDS011;63481;52.588;22.472;2023-03-31T00:56:09;33.70;;;22.80;;
34035;SDS011;63481;52.588;22.472;2023-03-31T00:57:04;30.90;;;23.30;;
34035;SDS011;63481;52.588;22.472;2023-03-31T00:57:59;36.40;;;24.00;;
34035;SDS011;63481;52.588;22.472;2023-03-31T00:58:53;32.80;;;23.00;;
34035;SDS011;63481;52.588;22.472;2023-03-31T00:59:52;32.10;;;23.70;;
34035;SDS011;63481;52.588;22.472;2023-03-31T01:00:50;34.50;;;24.20;;
34035;SDS011;63481;52.588;22.472;2023-03-31T01:01:44;33.50;;;24.80;;
34035;SDS011;63481;52.588;22.472;2023-03-31T01:02:41;37.10;;;25.30;;
34035;SDS011;63481;52.588;22.472;2023-03-31T01:03:42;35.30;;;24.40;;
34035;SDS011;63481;52.588;22.472;2023-03-31T01:04:38;37.20;;;25.70;;
34035;SDS011;63481;52.588;22.472;2023-03-31T01:05:41;33.50;;;25.50;;
34035;SDS011;63481;52.588;22.472;2023-03-31T01:06:37;33.20;;;24.10;;
34035;SDS011;63481;52.588;22.472;2023-03-31T01:07:41;35.40;;;24.60;;
34035;SDS011;63481;52.588;22.472;2023-03-31T01:08:36;35.80;;;25.30;;
34035;SDS011;63481;52.588;22.472;2023-03-31T01:09:29;36.30;;;25.00;;
34035;SDS011;63481;52.588;22.472;2023-03-31T01:10:26;34.70;;;24.70;;
34035;SDS011;63481;52.588;22.472;2023-03-31T01:11:21;35.40;;;24.50;;
34035;SDS011;63481;52.588;22.472;2023-03-31T01:12:19;38.10;;;24.90;;
34035;SDS011;63481;52.588;22.472;2023-03-31T01:13:14;34.80;;;24.60;;
34035;SDS011;63481;52.588;22.472;2023-03-31T01:14:08;37.90;;;25.50;;
34035;SDS011;63481;52.588;22.472;2023-03-31T01:15:02;35.30;;;25.30;;
34035;SDS011;63481;52.588;22.472;2023-03-31T01:15:55;37.40;;;24.50;;
34035;SDS011;63481;52.588;22.472;2023-03-31T01:16:50;37.10;;;25.30;;
34035;SDS011;63481;52.588;22.472;2023-03-31T01:17:44;35.10;;;25.80;;
34035;SDS011;63481;52.588;22.472;2023-03-31T01:18:41;33.20;;;25.70;;
34035;SDS011;63481;52.588;22.472;2023-03-31T01:22:00;36.60;;;26.50;;
34035;SDS011;63481;52.588;22.472;2023-03-31T01:28:36;36.20;;;26.10;;
34035;SDS011;63481;52.588;22.472;2023-03-31T01:38:59;37.20;;;26.60;;
34035;SDS011;63481;52.588;22.472;2023-03-31T01:42:08;36.60;;;26.20;;
34035;SDS011;63481;52.588;22.472;2023-03-31T01:43:22;36.00;;;27.70;;
34035;SDS011;63481;52.588;22.472;2023-03-31T01:45:37;37.80;;;27.50;;
34035;SDS011;63481;52.588;22.472;2023-03-31T01:46:57;40.20;;;27.50;;
34035;SDS011;63481;52.588;22.472;2023-03-31T01:47:57;36.30;;;27.80;;
34035;SDS011;63481;52.588;22.472;2023-03-31T01:49:16;40.20;;;27.60;;
34035;SDS011;63481;52.588;22.472;2023-03-31T01:50:17;34.80;;;27.80;;
34035;SDS011;63481;52.588;22.472;2023-03-31T01:51:15;38.90;;;28.20;;
34035;SDS011;63481;52.588;22.472;2023-03-31T01:52:29;38.20;;;27.60;;
34035;SDS011;63481;52.588;22.472;2023-03-31T01:54:43;38.90;;;27.50;;
34035;SDS011;63481;52.588;22.472;2023-03-31T01:56:06;38.20;;;27.90;;
34035;SDS011;63481;52.588;22.472;2023-03-31T01:57:15;37.70;;;28.70;;
34035;SDS011;63481;52.588;22.472;2023-03-31T01:59:13;37.80;;;26.70;;
34035;SDS011;63481;52.588;22.472;2023-03-31T02:00:29;34.40;;;27.80;;
34035;SDS011;63481;52.588;22.472;2023-03-31T02:01:27;35.10;;;27.50;;
34035;SDS011;63481;52.588;22.472;2023-03-31T02:02:26;35.20;;;26.50;;
34035;SDS011;63481;52.588;22.472;2023-03-31T02:03:25;35.10;;;28.40;;
34035;SDS011;63481;52.588;22.472;2023-03-31T02:05:19;34.00;;;26.10;;
34035;SDS011;63481;52.588;22.472;2023-03-31T02:06:18;36.10;;;27.00;;
34035;SDS011;63481;52.588;22.472;2023-03-31T02:07:23;40.20;;;27.60;;
34035;SDS011;63481;52.588;22.472;2023-03-31T02:08:30;35.10;;;27.10;;
34035;SDS011;63481;52.588;22.472;2023-03-31T02:09:31;37.60;;;27.10;;
34035;SDS011;63481;52.588;22.472;2023-03-31T02:10:28;31.80;;;26.60;;
34035;SDS011;63481;52.588;22.472;2023-03-31T02:11:23;35.40;;;27.30;;
34035;SDS011;63481;52.588;22.472;2023-03-31T02:12:17;33.50;;;26.60;;
34035;SDS011;63481;52.588;22.472;2023-03-31T02:13:13;34.60;;;26.90;;
34035;SDS011;63481;52.588;22.472;2023-03-31T02:14:08;34.70;;;26.20;;
34035;SDS011;63481;52.588;22.472;2023-03-31T02:15:04;33.00;;;25.40;;
34035;SDS011;63481;52.588;22.472;2023-03-31T02:16:04;34.00;;;26.30;;
34035;SDS011;63481;52.588;22.472;2023-03-31T02:17:01;32.00;;;24.60;;
34035;SDS011;63481;52.588;22.472;2023-03-31T02:17:57;34.90;;;24.50;;
34035;SDS011;63481;52.588;22.472;2023-03-31T02:19:53;31.70;;;24.10;;
34035;SDS011;63481;52.588;22.472;2023-03-31T02:20:48;35.60;;;25.50;;
34035;SDS011;63481;52.588;22.472;2023-03-31T02:21:44;31.50;;;24.30;;
34035;SDS011;63481;52.588;22.472;2023-03-31T02:22:42;30.70;;;23.10;;
34035;SDS011;63481;52.588;22.472;2023-03-31T02:23:37;31.00;;;23.90;;
34035;SDS011;63481;52.588;22.472;2023-03-31T02:24:30;30.10;;;23.50;;
34035;SDS011;63481;52.588;22.472;2023-03-31T02:25:31;32.40;;;23.90;;
34035;SDS011;63481;52.588;22.472;2023-03-31T02:26:36;27.50;;;21.00;;
34035;SDS011;63481;52.588;22.472;2023-03-31T02:27:40;27.80;;;22.60;;
34035;SDS011;63481;52.588;22.472;2023-03-31T02:28:35;32.30;;;22.80;;
34035;SDS011;63481;52.588;22.472;2023-03-31T02:29:29;28.00;;;21.10;;
34035;SDS011;63481;52.588;22.472;2023-03-31T02:30:23;28.00;;;22.20;;
34035;SDS011;63481;52.588;22.472;2023-03-31T02:31:52;25.40;;;20.70;;
34035;SDS011;63481;52.588;22.472;2023-03-31T02:33:19;28.70;;;21.50;;
34035;SDS011;63481;52.588;22.472;2023-03-31T02:34:12;28.50;;;21.60;;
34035;SDS011;63481;52.588;22.472;2023-03-31T02:35:05;26.30;;;19.80;;
34035;SDS011;63481;52.588;22.472;2023-03-31T02:36:01;28.20;;;20.50;;
34035;SDS011;63481;52.588;22.472;2023-03-31T02:36:54;25.80;;;20.20;;
34035;SDS011;63481;52.588;22.472;2023-03-31T02:37:47;25.30;;;20.00;;
34035;SDS011;63481;52.588;22.472;2023-03-31T02:38:55;25.80;;;19.40;;
34035;SDS011;63481;52.588;22.472;2023-03-31T02:39:54;27.50;;;19.90;;
34035;SDS011;63481;52.588;22.472;2023-03-31T02:40:48;27.20;;;18.90;;
34035;SDS011;63481;52.588;22.472;2023-03-31T02:41:40;28.00;;;20.40;;
34035;SDS011;63481;52.588;22.472;2023-03-31T02:42:34;24.50;;;18.90;;
34035;SDS011;63481;52.588;22.472;2023-03-31T02:43:28;25.80;;;18.50;;
34035;SDS011;63481;52.588;22.472;2023-03-31T02:44:20;28.60;;;19.90;;
34035;SDS011;63481;52.588;22.472;2023-03-31T02:46:44;23.40;;;17.40;;
34035;SDS011;63481;52.588;22.472;2023-03-31T02:47:38;23.50;;;18.00;;
34035;SDS011;63481;52.588;22.472;2023-03-31T02:48:37;25.60;;;17.50;;
34035;SDS011;63481;52.588;22.472;2023-03-31T02:49:37;22.30;;;16.60;;
34035;SDS011;63481;52.588;22.472;2023-03-31T02:50:47;22.70;;;16.00;;
34035;SDS011;63481;52.588;22.472;2023-03-31T02:53:02;23.80;;;17.80;;
34035;SDS011;63481;52.588;22.472;2023-03-31T02:55:32;22.20;;;16.50;;
34035;SDS011;63481;52.588;22.472;2023-03-31T02:59:25;20.70;;;14.80;;
34035;SDS011;63481;52.588;22.472;2023-03-31T03:00:57;22.50;;;15.60;;
34035;SDS011;63481;52.588;22.472;2023-03-31T03:02:03;21.50;;;15.30;;
34035;SDS011;63481;52.588;22.472;2023-03-31T03:07:14;20.10;;;14.50;;
34035;SDS011;63481;52.588;22.472;2023-03-31T03:08:17;21.90;;;15.10;;
34035;SDS011;63481;52.588;22.472;2023-03-31T03:10:27;22.00;;;15.30;;
34035;SDS011;63481;52.588;22.472;2023-03-31T03:11:51;21.60;;;15.20;;
34035;SDS011;63481;52.588;22.472;2023-03-31T03:13:08;21.40;;;15.40;;
34035;SDS011;63481;52.588;22.472;2023-03-31T03:15:37;21.20;;;15.00;;
34035;SDS011;63481;52.588;22.472;2023-03-31T03:16:53;23.90;;;16.10;;
34035;SDS011;63481;52.588;22.472;2023-03-31T03:17:51;18.90;;;14.50;;
34035;SDS011;63481;52.588;22.472;2023-03-31T03:18:56;22.20;;;15.90;;
34035;SDS011;63481;52.588;22.472;2023-03-31T03:19:51;19.90;;;15.00;;
34035;SDS011;63481;52.588;22.472;2023-03-31T03:20:46;20.40;;;15.00;;
34035;SDS011;63481;52.588;22.472;2023-03-31T03:21:40;21.10;;;15.10;;
34035;SDS011;63481;52.588;22.472;2023-03-31T03:22:33;20.90;;;15.10;;
34035;SDS011;63481;52.588;22.472;2023-03-31T03:23:25;21.80;;;15.90;;
34035;SDS011;63481;52.588;22.472;2023-03-31T03:24:18;22.50;;;16.30;;
34035;SDS011;63481;52.588;22.472;2023-03-31T03:25:11;21.90;;;15.60;;
34035;SDS011;63481;52.588;22.472;2023-03-31T03:26:05;20.70;;;16.00;;
34035;SDS011;63481;52.588;22.472;2023-03-31T03:26:58;21.70;;;15.80;;
34035;SDS011;63481;52.588;22.472;2023-03-31T03:27:50;23.60;;;15.70;;
34035;SDS011;63481;52.588;22.472;2023-03-31T03:28:51;22.20;;;16.00;;
34035;SDS011;63481;52.588;22.472;2023-03-31T03:29:44;20.40;;;14.60;;
34035;SDS011;63481;52.588;22.472;2023-03-31T03:30:36;19.40;;;15.10;;
34035;SDS011;63481;52.588;22.472;2023-03-31T03:31:29;20.20;;;15.60;;
34035;SDS011;63481;52.588;22.472;2023-03-31T03:32:22;21.60;;;15.50;;
34035;SDS011;63481;52.588;22.472;2023-03-31T03:33:15;20.00;;;16.00;;
34035;SDS011;63481;52.588;22.472;2023-03-31T03:34:08;19.20;;;14.90;;
34035;SDS011;63481;52.588;22.472;2023-03-31T03:35:01;20.50;;;15.40;;
34035;SDS011;63481;52.588;22.472;2023-03-31T03:35:55;22.20;;;14.80;;
34035;SDS011;63481;52.588;22.472;2023-03-31T03:36:47;22.10;;;15.40;;
34035;SDS011;63481;52.588;22.472;2023-03-31T03:37:40;21.50;;;14.70;;
34035;SDS011;63481;52.588;22.472;2023-03-31T03:38:32;21.30;;;16.50;;
34035;SDS011;63481;52.588;22.472;2023-03-31T03:39:25;21.00;;;15.20;;
34035;SDS011;63481;52.588;22.472;2023-03-31T03:40:17;21.90;;;15.60;;
34035;SDS011;63481;52.588;22.472;2023-03-31T03:41:10;19.70;;;16.00;;
34035;SDS011;63481;52.588;22.472;2023-03-31T03:42:02;19.80;;;16.10;;
34035;SDS011;63481;52.588;22.472;2023-03-31T03:42:55;20.00;;;15.30;;
34035;SDS011;63481;52.588;22.472;2023-03-31T03:43:48;22.50;;;16.00;;
34035;SDS011;63481;52.588;22.472;2023-03-31T03:44:40;22.10;;;16.20;;
34035;SDS011;63481;52.588;22.472;2023-03-31T03:45:33;19.80;;;15.10;;
34035;SDS011;63481;52.588;22.472;2023-03-31T03:46:25;20.80;;;15.80;;
34035;SDS011;63481;52.588;22.472;2023-03-31T03:47:18;19.80;;;15.30;;
34035;SDS011;63481;52.588;22.472;2023-03-31T03:48:11;21.90;;;16.70;;
34035;SDS011;63481;52.588;22.472;2023-03-31T03:49:03;21.30;;;16.80;;
34035;SDS011;63481;52.588;22.472;2023-03-31T03:49:56;22.70;;;16.30;;
34035;SDS011;63481;52.588;22.472;2023-03-31T03:50:49;21.80;;;15.70;;
34035;SDS011;63481;52.588;22.472;2023-03-31T03:51:41;22.00;;;16.50;;
34035;SDS011;63481;52.588;22.472;2023-03-31T03:52:34;22.50;;;17.40;;
34035;SDS011;63481;52.588;22.472;2023-03-31T03:53:27;21.90;;;16.30;;
34035;SDS011;63481;52.588;22.472;2023-03-31T03:54:19;22.20;;;16.60;;
34035;SDS011;63481;52.588;22.472;2023-03-31T03:55:12;22.90;;;15.70;;
34035;SDS011;63481;52.588;22.472;2023-03-31T03:56:04;21.00;;;16.20;;
34035;SDS011;63481;52.588;22.472;2023-03-31T03:56:57;21.60;;;17.70;;
34035;SDS011;63481;52.588;22.472;2023-03-31T03:57:50;23.70;;;17.30;;
34035;SDS011;63481;52.588;22.472;2023-03-31T03:58:42;24.60;;;17.00;;
34035;SDS011;63481;52.588;22.472;2023-03-31T03:59:35;21.50;;;16.00;;
34035;SDS011;63481;52.588;22.472;2023-03-31T04:00:27;25.60;;;16.80;;
34035;SDS011;63481;52.588;22.472;2023-03-31T04:01:20;21.80;;;16.30;;
34035;SDS011;63481;52.588;22.472;2023-03-31T04:02:13;22.50;;;17.10;;
34035;SDS011;63481;52.588;22.472;2023-03-31T04:03:06;26.00;;;17.10;;
34035;SDS011;63481;52.588;22.472;2023-03-31T04:03:59;21.70;;;17.00;;
34035;SDS011;63481;52.588;22.472;2023-03-31T04:04:51;20.80;;;16.50;;
34035;SDS011;63481;52.588;22.472;2023-03-31T04:05:45;20.80;;;16.00;;
34035;SDS011;63481;52.588;22.472;2023-03-31T04:06:41;19.50;;;15.80;;
34035;SDS011;63481;52.588;22.472;2023-03-31T04:07:35;20.80;;;16.20;;
34035;SDS011;63481;52.588;22.472;2023-03-31T04:08:28;21.80;;;17.30;;
34035;SDS011;63481;52.588;22.472;2023-03-31T04:09:21;20.40;;;16.40;;
34035;SDS011;63481;52.588;22.472;2023-03-31T04:10:14;20.30;;;15.70;;
34035;SDS011;63481;52.588;22.472;2023-03-31T04:11:15;19.90;;;16.50;;
34035;SDS011;63481;52.588;22.472;2023-03-31T04:12:10;20.80;;;15.60;;
34035;SDS011;63481;52.588;22.472;2023-03-31T04:13:03;20.10;;;14.80;;
34035;SDS011;63481;52.588;22.472;2023-03-31T04:13:56;22.10;;;15.10;;
34035;SDS011;63481;52.588;22.472;2023-03-31T04:14:49;21.00;;;16.00;;
34035;SDS011;63481;52.588;22.472;2023-03-31T04:15:43;22.20;;;16.10;;
34035;SDS011;63481;52.588;22.472;2023-03-31T04:16:37;22.00;;;15.00;;
34035;SDS011;63481;52.588;22.472;2023-03-31T04:17:32;21.10;;;15.70;;
34035;SDS011;63481;52.588;22.472;2023-03-31T04:18:25;20.20;;;16.30;;
34035;SDS011;63481;52.588;22.472;2023-03-31T04:19:18;19.80;;;15.60;;
34035;SDS011;63481;52.588;22.472;2023-03-31T04:20:13;20.50;;;15.70;;
34035;SDS011;63481;52.588;22.472;2023-03-31T04:21:10;23.00;;;16.40;;
34035;SDS011;63481;52.588;22.472;2023-03-31T04:22:06;21.30;;;16.00;;
34035;SDS011;63481;52.588;22.472;2023-03-31T04:23:03;19.60;;;15.20;;
34035;SDS011;63481;52.588;22.472;2023-03-31T04:24:01;20.60;;;15.90;;
34035;SDS011;63481;52.588;22.472;2023-03-31T04:24:56;19.30;;;15.60;;
34035;SDS011;63481;52.588;22.472;2023-03-31T04:25:50;20.80;;;16.00;;
34035;SDS011;63481;52.588;22.472;2023-03-31T04:26:44;21.80;;;15.80;;
34035;SDS011;63481;52.588;22.472;2023-03-31T04:27:37;22.30;;;16.10;;
34035;SDS011;63481;52.588;22.472;2023-03-31T04:28:30;21.30;;;16.40;;
34035;SDS011;63481;52.588;22.472;2023-03-31T04:29:26;24.90;;;15.50;;
34035;SDS011;63481;52.588;22.472;2023-03-31T04:30:23;19.60;;;15.30;;
34035;SDS011;63481;52.588;22.472;2023-03-31T04:31:22;21.90;;;15.20;;
34035;SDS011;63481;52.588;22.472;2023-03-31T04:32:19;20.50;;;15.90;;
34035;SDS011;63481;52.588;22.472;2023-03-31T04:33:13;19.30;;;15.10;;
34035;SDS011;63481;52.588;22.472;2023-03-31T04:34:08;19.40;;;14.80;;
34035;SDS011;63481;52.588;22.472;2023-03-31T04:35:05;20.20;;;15.80;;
34035;SDS011;63481;52.588;22.472;2023-03-31T04:35:58;20.00;;;15.80;;
34035;SDS011;63481;52.588;22.472;2023-03-31T04:37:53;21.00;;;14.80;;
34035;SDS011;63481;52.588;22.472;2023-03-31T04:39:47;19.10;;;14.30;;
34035;SDS011;63481;52.588;22.472;2023-03-31T04:40:42;17.40;;;13.90;;
34035;SDS011;63481;52.588;22.472;2023-03-31T04:41:35;19.50;;;14.30;;
34035;SDS011;63481;52.588;22.472;2023-03-31T04:42:29;18.50;;;14.50;;
34035;SDS011;63481;52.588;22.472;2023-03-31T04:43:22;21.50;;;14.70;;
34035;SDS011;63481;52.588;22.472;2023-03-31T04:44:15;21.10;;;15.30;;
34035;SDS011;63481;52.588;22.472;2023-03-31T04:45:09;19.30;;;14.90;;
34035;SDS011;63481;52.588;22.472;2023-03-31T04:46:03;19.00;;;14.40;;
34035;SDS011;63481;52.588;22.472;2023-03-31T04:46:56;19.40;;;15.30;;
34035;SDS011;63481;52.588;22.472;2023-03-31T04:47:50;20.90;;;14.70;;
34035;SDS011;63481;52.588;22.472;2023-03-31T04:48:44;21.70;;;14.80;;
34035;SDS011;63481;52.588;22.472;2023-03-31T04:49:37;18.40;;;14.00;;
34035;SDS011;63481;52.588;22.472;2023-03-31T04:50:30;18.20;;;13.90;;
34035;SDS011;63481;52.588;22.472;2023-03-31T04:51:24;18.90;;;13.90;;
34035;SDS011;63481;52.588;22.472;2023-03-31T04:52:17;18.40;;;14.30;;
34035;SDS011;63481;52.588;22.472;2023-03-31T04:53:11;17.30;;;13.00;;
34035;SDS011;63481;52.588;22.472;2023-03-31T04:54:04;18.40;;;14.40;;
34035;SDS011;63481;52.588;22.472;2023-03-31T04:54:57;16.90;;;13.20;;
34035;SDS011;63481;52.588;22.472;2023-03-31T04:55:50;17.50;;;14.00;;
34035;SDS011;63481;52.588;22.472;2023-03-31T04:56:44;18.50;;;14.00;;
34035;SDS011;63481;52.588;22.472;2023-03-31T04:57:37;16.70;;;14.00;;
34035;SDS011;63481;52.588;22.472;2023-03-31T04:58:31;19.60;;;14.00;;
34035;SDS011;63481;52.588;22.472;2023-03-31T04:59:24;18.60;;;13.70;;
34035;SDS011;63481;52.588;22.472;2023-03-31T05:00:17;19.00;;;13.30;;
34035;SDS011;63481;52.588;22.472;2023-03-31T05:01:11;19.10;;;14.30;;
34035;SDS011;63481;52.588;22.472;2023-03-31T05:02:10;16.50;;;12.90;;
34035;SDS011;63481;52.588;22.472;2023-03-31T05:03:03;19.50;;;13.30;;
34035;SDS011;63481;52.588;22.472;2023-03-31T05:03:56;18.70;;;13.20;;
34035;SDS011;63481;52.588;22.472;2023-03-31T05:04:50;16.80;;;12.90;;
34035;SDS011;63481;52.588;22.472;2023-03-31T05:05:43;16.80;;;13.50;;
34035;SDS011;63481;52.588;22.472;2023-03-31T05:06:36;19.70;;;13.80;;
34035;SDS011;63481;52.588;22.472;2023-03-31T05:07:29;18.40;;;13.50;;
34035;SDS011;63481;52.588;22.472;2023-03-31T05:08:23;16.90;;;13.10;;
34035;SDS011;63481;52.588;22.472;2023-03-31T05:09:16;20.60;;;13.20;;
34035;SDS011;63481;52.588;22.472;2023-03-31T05:10:09;18.80;;;12.90;;
34035;SDS011;63481;52.588;22.472;2023-03-31T05:11:03;17.00;;;13.50;;
34035;SDS011;63481;52.588;22.472;2023-03-31T05:11:56;19.00;;;13.80;;
34035;SDS011;63481;52.588;22.472;2023-03-31T05:12:49;15.30;;;11.90;;
34035;SDS011;63481;52.588;22.472;2023-03-31T05:13:43;18.10;;;12.30;;
34035;SDS011;63481;52.588;22.472;2023-03-31T05:14:36;16.70;;;12.50;;
34035;SDS011;63481;52.588;22.472;2023-03-31T05:15:29;16.40;;;12.90;;
34035;SDS011;63481;52.588;22.472;2023-03-31T05:16:22;18.30;;;13.20;;
34035;SDS011;63481;52.588;22.472;2023-03-31T05:17:16;18.30;;;13.10;;
34035;SDS011;63481;52.588;22.472;2023-03-31T05:18:09;17.80;;;13.30;;
34035;SDS011;63481;52.588;22.472;2023-03-31T05:19:03;19.70;;;13.10;;
34035;SDS011;63481;52.588;22.472;2023-03-31T05:19:56;16.20;;;12.00;;
34035;SDS011;63481;52.588;22.472;2023-03-31T05:20:49;16.70;;;12.50;;
34035;SDS011;63481;52.588;22.472;2023-03-31T05:21:42;15.90;;;12.50;;
34035;SDS011;63481;52.588;22.472;2023-03-31T05:22:36;16.60;;;12.70;;
34035;SDS011;63481;52.588;22.472;2023-03-31T05:23:31;18.50;;;12.70;;
34035;SDS011;63481;52.588;22.472;2023-03-31T05:24:24;17.60;;;12.70;;
34035;SDS011;63481;52.588;22.472;2023-03-31T05:25:17;16.30;;;12.40;;
34035;SDS011;63481;52.588;22.472;2023-03-31T05:26:11;16.90;;;12.50;;
34035;SDS011;63481;52.588;22.472;2023-03-31T05:27:05;18.60;;;13.30;;
34035;SDS011;63481;52.588;22.472;2023-03-31T05:27:59;17.80;;;13.30;;
34035;SDS011;63481;52.588;22.472;2023-03-31T05:28:52;18.10;;;13.10;;
34035;SDS011;63481;52.588;22.472;2023-03-31T05:29:46;17.30;;;13.30;;
34035;SDS011;63481;52.588;22.472;2023-03-31T05:30:39;16.70;;;12.90;;
34035;SDS011;63481;52.588;22.472;2023-03-31T05:31:32;19.70;;;13.40;;
34035;SDS011;63481;52.588;22.472;2023-03-31T05:32:25;15.50;;;12.90;;
34035;SDS011;63481;52.588;22.472;2023-03-31T05:33:19;19.90;;;13.00;;
34035;SDS011;63481;52.588;22.472;2023-03-31T05:34:12;17.00;;;12.60;;
34035;SDS011;63481;52.588;22.472;2023-03-31T05:35:06;17.00;;;13.10;;
34035;SDS011;63481;52.588;22.472;2023-03-31T05:35:59;19.40;;;12.70;;
34035;SDS011;63481;52.588;22.472;2023-03-31T05:36:52;17.90;;;12.90;;
34035;SDS011;63481;52.588;22.472;2023-03-31T05:37:45;16.40;;;12.60;;
34035;SDS011;63481;52.588;22.472;2023-03-31T05:38:37;16.60;;;12.30;;
34035;SDS011;63481;52.588;22.472;2023-03-31T05:39:31;17.10;;;12.30;;
34035;SDS011;63481;52.588;22.472;2023-03-31T05:40:24;16.40;;;12.40;;
34035;SDS011;63481;52.588;22.472;2023-03-31T05:41:16;17.00;;;12.70;;
34035;SDS011;63481;52.588;22.472;2023-03-31T05:42:09;16.00;;;11.60;;
34035;SDS011;63481;52.588;22.472;2023-03-31T05:43:02;16.30;;;11.40;;
34035;SDS011;63481;52.588;22.472;2023-03-31T05:43:54;15.10;;;11.00;;
34035;SDS011;63481;52.588;22.472;2023-03-31T05:44:47;17.90;;;12.20;;
34035;SDS011;63481;52.588;22.472;2023-03-31T05:45:40;17.30;;;11.80;;
34035;SDS011;63481;52.588;22.472;2023-03-31T05:46:33;17.20;;;11.70;;
34035;SDS011;63481;52.588;22.472;2023-03-31T05:47:25;15.90;;;10.80;;
34035;SDS011;63481;52.588;22.472;2023-03-31T05:48:18;14.30;;;10.90;;
34035;SDS011;63481;52.588;22.472;2023-03-31T05:49:10;17.00;;;11.40;;
34035;SDS011;63481;52.588;22.472;2023-03-31T05:50:03;16.20;;;11.20;;
34035;SDS011;63481;52.588;22.472;2023-03-31T05:50:58;19.10;;;10.90;;
34035;SDS011;63481;52.588;22.472;2023-03-31T05:51:52;14.50;;;10.40;;
34035;SDS011;63481;52.588;22.472;2023-03-31T05:52:45;13.40;;;10.50;;
34035;SDS011;63481;52.588;22.472;2023-03-31T05:53:37;15.40;;;11.20;;
34035;SDS011;63481;52.588;22.472;2023-03-31T05:54:30;12.70;;;9.90;;
34035;SDS011;63481;52.588;22.472;2023-03-31T05:55:22;17.50;;;10.30;;
34035;SDS011;63481;52.588;22.472;2023-03-31T05:56:15;14.90;;;10.60;;
34035;SDS011;63481;52.588;22.472;2023-03-31T05:57:07;15.30;;;11.00;;
34035;SDS011;63481;52.588;22.472;2023-03-31T05:58:01;14.90;;;10.80;;
34035;SDS011;63481;52.588;22.472;2023-03-31T05:58:53;14.00;;;9.90;;
34035;SDS011;63481;52.588;22.472;2023-03-31T05:59:46;14.90;;;10.90;;
34035;SDS011;63481;52.588;22.472;2023-03-31T06:00:38;13.50;;;10.10;;
34035;SDS011;63481;52.588;22.472;2023-03-31T06:01:31;15.50;;;10.90;;
34035;SDS011;63481;52.588;22.472;2023-03-31T06:02:24;15.90;;;10.50;;
34035;SDS011;63481;52.588;22.472;2023-03-31T06:03:16;13.60;;;10.40;;
34035;SDS011;63481;52.588;22.472;2023-03-31T06:04:09;16.80;;;10.90;;
34035;SDS011;63481;52.588;22.472;2023-03-31T06:05:01;16.70;;;10.90;;
34035;SDS011;63481;52.588;22.472;2023-03-31T06:05:54;15.60;;;10.50;;
34035;SDS011;63481;52.588;22.472;2023-03-31T06:06:47;16.70;;;10.40;;